createdAt,value
2022-12-22T00:01:06.973Z,99.93
2022-12-22T00:05:34.977Z,88.68
2022-12-22T00:09:55.636Z,84.70
2022-12-22T00:14:17.070Z,92.65
2022-12-22T00:18:37.757Z,81.32
2022-12-22T00:22:57.757Z,82.75
2022-12-22T00:27:18.315Z,87.25
2022-12-22T00:31:39.591Z,87.80
2022-12-22T00:36:00.719Z,86.32
2022-12-22T00:40:20.870Z,81.63
2022-12-22T00:44:41.294Z,87.78
2022-12-22T00:49:02.536Z,86.15
2022-12-22T00:53:23.884Z,91.47
2022-12-22T00:57:45.606Z,84.43
2022-12-22T01:02:06.603Z,73.78
2022-12-22T01:06:28.475Z,98.40
2022-12-22T01:10:48.781Z,86.20
2022-12-22T01:15:09.242Z,84.07
2022-12-22T01:19:29.840Z,83.93
2022-12-22T01:23:50.642Z,92.65
2022-12-22T01:28:11.388Z,78.78
2022-12-22T01:32:33.847Z,87.88
2022-12-22T01:36:54.460Z,81.65
2022-12-22T01:41:16.706Z,83.53
2022-12-22T01:45:47.511Z,86.85
2022-12-22T01:50:07.475Z,86.50
2022-12-22T01:54:30.353Z,98.88
2022-12-22T01:58:55.673Z,90.85
2022-12-22T02:03:16.638Z,82.50
2022-12-22T02:07:59.017Z,85.15
2022-12-22T02:12:39.875Z,88.72
2022-12-22T02:17:18.363Z,91.22
2022-12-22T02:21:44.027Z,85.30
2022-12-22T02:26:17.627Z,79.85
2022-12-22T02:30:38.215Z,88.40
2022-12-22T02:34:58.410Z,77.55
2022-12-22T02:39:35.444Z,83.65
2022-12-22T02:44:04.607Z,78.28
2022-12-22T02:48:30.440Z,87.15
2022-12-22T02:52:53.982Z,79.88
2022-12-22T02:57:14.596Z,82.68
2022-12-22T03:01:34.841Z,78.57
2022-12-22T03:05:55.547Z,83.40
2022-12-22T03:10:15.684Z,70.22
2022-12-22T03:14:36.138Z,72.20
2022-12-22T03:18:56.292Z,79.30
2022-12-22T03:23:22.624Z,68.97
2022-12-22T03:27:24.290Z,73.43
2022-12-22T03:31:26.352Z,76.97
2022-12-22T03:35:28.182Z,71.57
2022-12-22T03:39:30.165Z,71.78
2022-12-22T03:43:50.709Z,73.13
2022-12-22T03:47:52.627Z,65.25
2022-12-22T03:51:54.347Z,69.82
2022-12-22T03:55:56.260Z,84.05
2022-12-22T03:59:57.949Z,85.85
2022-12-22T04:04:00.025Z,79.85
2022-12-22T04:08:01.790Z,69.97
2022-12-22T04:12:22.666Z,66.93
2022-12-22T04:16:24.999Z,83.47
2022-12-22T04:20:28.448Z,76.82
2022-12-22T04:24:30.092Z,72.95
2022-12-22T04:28:32.098Z,85.25
2022-12-22T04:32:34.532Z,68.00
2022-12-22T04:36:36.632Z,70.63
2022-12-22T04:40:38.473Z,70.35
2022-12-22T04:44:40.469Z,78.43
2022-12-22T04:48:42.170Z,78.32
2022-12-22T04:52:44.449Z,82.97
2022-12-22T04:56:46.110Z,86.30
2022-12-22T05:00:48.087Z,77.50
2022-12-22T05:04:49.856Z,79.85
2022-12-22T05:08:51.847Z,69.38
2022-12-22T05:12:56.411Z,66.72
2022-12-22T05:16:58.510Z,71.97
2022-12-22T05:21:06.158Z,75.03
2022-12-22T05:25:08.533Z,83.53
2022-12-22T05:29:10.232Z,75.65
2022-12-22T05:33:12.194Z,85.07
2022-12-22T05:37:13.881Z,79.88
2022-12-22T05:41:15.869Z,73.30
2022-12-22T05:45:19.923Z,71.20
2022-12-22T05:49:22.016Z,73.93
2022-12-22T05:53:23.797Z,77.75
2022-12-22T05:57:25.804Z,79.30
2022-12-22T06:01:27.550Z,75.60
2022-12-22T06:05:29.538Z,75.05
2022-12-22T06:09:31.222Z,74.68
2022-12-22T06:13:33.311Z,76.70
2022-12-22T06:17:42.143Z,79.45
2022-12-22T06:21:46.180Z,73.85
2022-12-22T06:25:58.049Z,69.15
2022-12-22T06:30:00.121Z,76.95
2022-12-22T06:34:01.908Z,73.45
2022-12-22T06:38:03.873Z,81.97
2022-12-22T06:42:24.007Z,72.57
2022-12-22T06:46:25.993Z,69.75
2022-12-22T06:50:27.893Z,73.15
2022-12-22T06:54:29.874Z,82.63
2022-12-22T06:58:31.484Z,88.95
2022-12-22T07:02:33.574Z,101.30
2022-12-22T07:06:36.292Z,96.07
2022-12-22T07:10:56.938Z,76.60
2022-12-22T07:14:58.677Z,74.57
2022-12-22T07:19:00.635Z,72.38
2022-12-22T07:23:02.380Z,70.25
2022-12-22T07:27:04.352Z,74.53
2022-12-22T07:31:07.126Z,74.18
2022-12-22T07:35:09.251Z,74.85
2022-12-22T07:39:12.713Z,70.13
2022-12-22T07:43:14.663Z,75.20
2022-12-22T07:47:16.422Z,74.13
2022-12-22T07:51:18.309Z,66.35
2022-12-22T07:55:20.405Z,80.15
2022-12-22T07:59:22.576Z,75.65
2022-12-22T08:03:24.327Z,77.57
2022-12-22T08:07:26.427Z,75.10
2022-12-22T08:11:28.465Z,75.53
2022-12-22T08:15:30.543Z,74.03
2022-12-22T08:19:32.907Z,63.80
2022-12-22T08:23:35.603Z,67.32
2022-12-22T08:27:48.038Z,70.38
2022-12-22T08:31:50.223Z,74.55
2022-12-22T08:35:52.169Z,71.45
2022-12-22T08:40:01.783Z,66.13
2022-12-22T08:44:03.499Z,70.90
2022-12-22T08:48:05.564Z,65.60
2022-12-22T08:52:08.880Z,64.75
2022-12-22T08:56:13.579Z,72.38
2022-12-22T09:00:15.794Z,65.10
2022-12-22T09:04:19.966Z,67.25
2022-12-22T09:08:21.738Z,68.68
2022-12-22T09:12:23.682Z,71.22
2022-12-22T09:16:28.091Z,68.80
2022-12-22T09:20:30.247Z,65.05
2022-12-22T09:24:32.096Z,66.22
2022-12-22T09:28:34.336Z,68.88
2022-12-22T09:32:36.136Z,66.30
2022-12-22T09:36:41.140Z,64.63
2022-12-22T09:40:42.884Z,69.63
2022-12-22T09:44:47.489Z,67.03
2022-12-22T09:48:49.524Z,63.00
2022-12-22T09:52:55.031Z,58.03
2022-12-22T09:56:57.939Z,60.67
2022-12-22T10:01:20.052Z,60.78
2022-12-22T10:05:28.495Z,58.85
2022-12-22T10:13:54.214Z,53.33
2022-12-22T10:18:12.884Z,56.30
2022-12-22T10:22:31.858Z,54.22
2022-12-22T10:26:34.338Z,51.45
2022-12-22T10:30:38.716Z,54.92
2022-12-22T10:35:06.771Z,49.70
2022-12-22T10:39:11.278Z,46.93
2022-12-22T10:43:22.573Z,52.05
2022-12-22T10:47:25.860Z,48.33
2022-12-22T10:51:27.635Z,48.85
2022-12-22T10:55:30.285Z,54.17
2022-12-22T10:59:34.003Z,50.03
2022-12-22T11:03:36.081Z,50.83
2022-12-22T11:07:43.129Z,50.28
2022-12-22T11:11:57.221Z,51.53
2022-12-22T11:16:03.873Z,49.60
2022-12-22T11:20:42.880Z,48.60
2022-12-22T11:25:13.801Z,48.45
2022-12-22T11:29:24.685Z,48.83
2022-12-22T11:33:50.396Z,51.72
2022-12-22T11:38:04.118Z,48.90
2022-12-22T11:42:22.404Z,50.05
2022-12-22T11:46:52.709Z,49.73
2022-12-22T11:50:59.671Z,55.58
2022-12-22T11:55:16.248Z,54.13
2022-12-22T11:59:27.397Z,55.80
2022-12-22T12:03:48.870Z,53.40
2022-12-22T12:07:57.874Z,53.60
2022-12-22T12:12:16.655Z,50.78
2022-12-22T12:16:33.742Z,50.88
2022-12-22T12:20:46.820Z,51.08
2022-12-22T12:25:11.308Z,49.47
2022-12-22T12:29:22.309Z,47.25
2022-12-22T12:33:38.780Z,51.25
2022-12-22T12:37:45.609Z,48.28
2022-12-22T12:41:56.285Z,48.20
2022-12-22T12:45:58.108Z,46.17
2022-12-22T12:50:06.216Z,47.17
2022-12-22T12:54:41.432Z,45.88
2022-12-22T12:58:49.547Z,45.72
2022-12-22T13:03:37.377Z,39.63
2022-12-22T13:08:14.555Z,37.30
2022-12-22T13:12:40.108Z,34.25
2022-12-22T13:16:42.213Z,36.20
2022-12-22T13:20:44.902Z,37.03
2022-12-22T13:24:49.124Z,36.33
2022-12-22T13:28:56.221Z,39.70
2022-12-22T13:33:02.170Z,40.83
2022-12-22T13:37:15.347Z,37.03
2022-12-22T13:41:26.763Z,40.90
2022-12-22T13:45:38.314Z,39.20
2022-12-22T13:50:07.733Z,43.17
2022-12-22T13:54:09.918Z,40.25
2022-12-22T13:58:27.231Z,42.50
2022-12-22T14:02:32.694Z,39.72
2022-12-22T14:06:37.902Z,44.72
2022-12-22T14:10:44.360Z,46.65
2022-12-22T14:14:48.268Z,45.10
2022-12-22T14:18:52.960Z,46.13
2022-12-22T14:22:58.811Z,45.30
2022-12-22T14:27:01.596Z,43.90
2022-12-22T14:31:05.785Z,46.53
2022-12-22T14:35:21.478Z,46.58
2022-12-22T14:39:31.885Z,49.22
2022-12-22T14:43:34.904Z,47.45
2022-12-22T14:47:37.320Z,47.97
2022-12-22T14:51:39.563Z,47.33
2022-12-22T14:55:42.769Z,52.13
2022-12-22T14:59:59.673Z,52.05
2022-12-22T15:04:04.223Z,51.53
2022-12-22T15:08:26.859Z,50.80
2022-12-22T15:12:28.565Z,49.05
2022-12-22T15:16:31.342Z,52.80
2022-12-22T15:20:39.065Z,50.47
2022-12-22T15:24:41.659Z,55.45
2022-12-22T15:28:43.393Z,58.47
2022-12-22T15:32:46.031Z,55.08
2022-12-22T15:36:48.000Z,54.92
2022-12-22T15:40:51.056Z,55.88
2022-12-22T15:44:52.849Z,55.50
2022-12-22T15:48:54.908Z,56.15
2022-12-22T15:52:58.983Z,60.78
2022-12-22T15:57:01.596Z,56.15
2022-12-22T16:01:03.540Z,54.92
2022-12-22T16:05:06.408Z,57.92
2022-12-22T16:09:16.520Z,55.65
2022-12-22T16:13:22.265Z,56.78
2022-12-22T16:17:26.995Z,54.03
2022-12-22T16:21:31.777Z,57.08
2022-12-22T16:25:37.293Z,54.47
2022-12-22T16:29:42.836Z,53.08
2022-12-22T16:33:44.537Z,56.75
2022-12-22T16:37:48.742Z,57.28
2022-12-22T16:42:00.100Z,58.53
2022-12-22T16:46:05.985Z,60.80
2022-12-22T16:50:16.993Z,60.25
2022-12-22T16:54:19.151Z,60.40
2022-12-22T16:58:21.318Z,59.05
2022-12-22T17:02:30.275Z,57.08
2022-12-22T17:06:32.901Z,57.90
2022-12-22T17:10:35.258Z,59.53
2022-12-22T17:14:39.348Z,55.65
2022-12-22T17:18:41.389Z,60.00
2022-12-22T17:22:47.110Z,57.40
2022-12-22T17:26:49.719Z,55.83
2022-12-22T17:30:51.850Z,60.90
2022-12-22T17:34:53.605Z,59.22
2022-12-22T17:38:55.585Z,59.55
2022-12-22T17:43:00.517Z,55.95
2022-12-22T17:47:02.656Z,55.85
2022-12-22T17:51:04.517Z,58.78
2022-12-22T17:55:16.803Z,64.13
2022-12-22T17:59:18.761Z,64.10
2022-12-22T18:03:20.769Z,68.10
2022-12-22T18:07:24.677Z,70.40
2022-12-22T18:11:27.341Z,68.35
2022-12-22T18:15:31.977Z,70.28
2022-12-22T18:19:33.739Z,64.60
2022-12-22T18:23:37.390Z,64.10
2022-12-22T18:27:39.110Z,65.70
2022-12-22T18:31:41.755Z,68.28
2022-12-22T18:35:43.907Z,68.75
2022-12-22T18:39:46.065Z,69.18
2022-12-22T18:43:48.159Z,67.70
2022-12-22T18:47:50.548Z,70.35
2022-12-22T18:51:52.366Z,67.93
2022-12-22T18:55:54.860Z,70.72
2022-12-22T18:59:56.934Z,71.72
2022-12-22T19:03:59.232Z,69.60
2022-12-22T19:08:01.181Z,69.53
2022-12-22T19:12:03.344Z,70.65
2022-12-22T19:16:07.003Z,67.82
2022-12-22T19:20:16.610Z,73.93
2022-12-22T19:24:18.792Z,72.20
2022-12-22T19:28:36.410Z,68.25
2022-12-22T19:32:44.307Z,71.00
2022-12-22T19:36:46.188Z,67.97
2022-12-22T19:40:50.854Z,73.82
2022-12-22T19:44:52.572Z,72.50
2022-12-22T19:48:56.451Z,77.78
2022-12-22T19:53:02.029Z,72.25
2022-12-22T19:57:07.564Z,78.70
2022-12-22T20:01:11.771Z,73.07
2022-12-22T20:05:22.660Z,73.10
2022-12-22T20:09:24.409Z,68.93
2022-12-22T20:13:32.646Z,71.13
2022-12-22T20:17:34.397Z,67.43
2022-12-22T20:21:36.444Z,69.40
2022-12-22T20:25:43.827Z,66.50
2022-12-22T20:29:45.831Z,68.50
2022-12-22T20:33:48.424Z,68.07
2022-12-22T20:37:50.454Z,64.95
2022-12-22T20:41:53.652Z,68.85
2022-12-22T20:46:00.324Z,68.75
2022-12-22T20:50:02.253Z,70.07
2022-12-22T20:54:04.650Z,70.35
2022-12-22T20:58:16.297Z,67.15
2022-12-22T21:02:24.188Z,66.60
2022-12-22T21:06:29.332Z,70.45
2022-12-22T21:10:31.540Z,64.40
2022-12-22T21:14:33.350Z,62.40
2022-12-22T21:18:35.318Z,60.38
2022-12-22T21:22:36.999Z,60.83
2022-12-22T21:26:42.996Z,57.30
2022-12-22T21:30:44.835Z,54.00
2022-12-22T21:34:46.776Z,49.05
2022-12-22T21:38:51.985Z,49.78
2022-12-22T21:42:54.160Z,46.85
2022-12-22T21:46:56.385Z,46.47
2022-12-22T21:50:58.825Z,41.17
2022-12-22T21:55:00.614Z,41.45
2022-12-22T21:59:04.130Z,43.58
2022-12-22T22:03:06.123Z,38.10
2022-12-22T22:07:08.166Z,45.05
2022-12-22T22:11:19.343Z,46.38
2022-12-22T22:15:23.371Z,48.85
2022-12-22T22:19:25.117Z,48.90
2022-12-22T22:23:27.172Z,48.55
2022-12-22T22:27:28.944Z,50.75
2022-12-22T22:31:31.081Z,53.83
2022-12-22T22:35:32.903Z,54.72
2022-12-22T22:39:34.846Z,50.60
2022-12-22T22:43:36.717Z,56.85
2022-12-22T22:47:38.809Z,58.50
2022-12-22T22:51:40.531Z,56.00
2022-12-22T22:55:42.731Z,58.10
2022-12-22T22:59:44.498Z,59.50
2022-12-22T23:03:46.654Z,58.25
2022-12-22T23:07:48.446Z,61.55
2022-12-22T23:11:52.403Z,62.55
2022-12-22T23:16:01.943Z,59.65
2022-12-22T23:20:04.539Z,62.05
2022-12-22T23:24:06.765Z,62.75
2022-12-22T23:28:09.404Z,59.88
2022-12-22T23:32:11.262Z,59.50
2022-12-22T23:36:13.369Z,63.63
2022-12-22T23:40:50.559Z,57.78
2022-12-22T23:44:37.148Z,60.28
2022-12-22T23:48:42.375Z,57.78
2022-12-22T23:52:49.129Z,59.72
2022-12-22T23:56:51.218Z,56.90
